sensor_id;sensor_type;location;lat;lon;timestamp;pressure;altitude;pressure_sealevel;temperature;humidity
78845;BME280;68195;50.854;2.860;2023-12-20T00:01:36;101838.53;;;6.04;100.00
78845;BME280;68195;50.854;2.860;2023-12-20T00:04:02;101874.63;;;6.20;100.00
78845;BME280;68195;50.854;2.860;2023-12-20T00:06:29;101879.66;;;6.32;100.00
78845;BME280;68195;50.854;2.860;2023-12-20T00:08:57;101822.38;;;5.82;100.00
78845;BME280;68195;50.854;2.860;2023-12-20T00:11:27;101902.38;;;6.14;100.00
78845;BME280;68195;50.854;2.860;2023-12-20T00:13:55;101878.34;;;6.03;100.00
78845;BME280;68195;50.854;2.860;2023-12-20T00:16:20;101778.72;;;5.50;100.00
78845;BME280;68195;50.854;2.860;2023-12-20T00:18:46;101801.91;;;5.62;100.00
78845;BME280;68195;50.854;2.860;2023-12-20T00:21:11;101746.94;;;5.35;100.00
78845;BME280;68195;50.854;2.860;2023-12-20T00:23:41;101820.53;;;5.92;100.00
78845;BME280;68195;50.854;2.860;2023-12-20T00:26:09;101761.41;;;5.53;100.00
78845;BME280;68195;50.854;2.860;2023-12-20T00:28:41;101745.94;;;5.49;100.00
78845;BME280;68195;50.854;2.860;2023-12-20T00:31:10;101844.63;;;6.02;100.00
78845;BME280;68195;50.854;2.860;2023-12-20T00:33:40;101883.25;;;6.23;100.00
78845;BME280;68195;50.854;2.860;2023-12-20T00:36:10;101828.34;;;5.90;100.00
78845;BME280;68195;50.854;2.860;2023-12-20T00:38:36;101835.22;;;5.93;100.00
78845;BME280;68195;50.854;2.860;2023-12-20T00:41:04;101875.69;;;6.06;100.00
78845;BME280;68195;50.854;2.860;2023-12-20T00:43:31;101850.75;;;5.96;100.00
78845;BME280;68195;50.854;2.860;2023-12-20T00:45:57;101848.38;;;5.76;100.00
78845;BME280;68195;50.854;2.860;2023-12-20T00:48:27;101887.94;;;5.95;100.00
78845;BME280;68195;50.854;2.860;2023-12-20T00:50:52;101748.84;;;5.21;100.00
78845;BME280;68195;50.854;2.860;2023-12-20T00:53:23;101883.59;;;5.94;100.00
78845;BME280;68195;50.854;2.860;2023-12-20T00:55:50;101845.78;;;5.78;100.00
78845;BME280;68195;50.854;2.860;2023-12-20T00:58:18;101814.81;;;5.65;100.00
78845;BME280;68195;50.854;2.860;2023-12-20T01:00:46;101853.50;;;5.82;100.00
78845;BME280;68195;50.854;2.860;2023-12-20T01:03:14;101714.59;;;4.98;100.00
78845;BME280;68195;50.854;2.860;2023-12-20T01:05:45;101740.41;;;5.04;100.00
78845;BME280;68195;50.854;2.860;2023-12-20T01:08:13;101812.47;;;5.44;100.00
78845;BME280;68195;50.854;2.860;2023-12-20T01:10:38;101819.34;;;5.48;100.00
78845;BME280;68195;50.854;2.860;2023-12-20T01:13:04;101837.34;;;5.57;100.00
78845;BME280;68195;50.854;2.860;2023-12-20T01:15:29;101869.94;;;5.78;100.00
78845;BME280;68195;50.854;2.860;2023-12-20T01:17:57;101826.19;;;5.55;100.00
78845;BME280;68195;50.854;2.860;2023-12-20T01:20:24;101847.72;;;5.60;100.00
78845;BME280;68195;50.854;2.860;2023-12-20T01:22:49;101887.34;;;5.68;100.00
78845;BME280;68195;50.854;2.860;2023-12-20T01:25:15;101860.00;;;5.43;100.00
78845;BME280;68195;50.854;2.860;2023-12-20T01:27:40;101770.75;;;4.89;100.00
78845;BME280;68195;50.854;2.860;2023-12-20T01:30:06;101792.03;;;5.16;100.00
78845;BME280;68195;50.854;2.860;2023-12-20T01:32:32;101755.16;;;4.94;100.00
78845;BME280;68195;50.854;2.860;2023-12-20T01:35:02;101882.19;;;5.65;100.00
78845;BME280;68195;50.854;2.860;2023-12-20T01:37:29;101845.25;;;5.46;100.00
78845;BME280;68195;50.854;2.860;2023-12-20T01:39:57;101806.69;;;5.22;100.00
78845;BME280;68195;50.854;2.860;2023-12-20T01:42:26;101871.81;;;5.68;100.00
78845;BME280;68195;50.854;2.860;2023-12-20T01:44:51;101837.69;;;5.29;100.00
78845;BME280;68195;50.854;2.860;2023-12-20T01:47:17;101893.38;;;5.70;100.00
78845;BME280;68195;50.854;2.860;2023-12-20T01:49:47;101850.44;;;5.46;100.00
78845;BME280;68195;50.854;2.860;2023-12-20T01:52:13;101874.34;;;5.71;100.00
78845;BME280;68195;50.854;2.860;2023-12-20T01:54:40;101877.84;;;5.66;100.00
78845;BME280;68195;50.854;2.860;2023-12-20T01:57:07;101874.47;;;5.62;100.00
78845;BME280;68195;50.854;2.860;2023-12-20T01:59:35;101829.00;;;5.33;100.00
78845;BME280;68195;50.854;2.860;2023-12-20T02:02:05;101753.59;;;4.79;100.00
78845;BME280;68195;50.854;2.860;2023-12-20T02:04:33;101846.22;;;5.38;100.00
78845;BME280;68195;50.854;2.860;2023-12-20T02:06:59;101891.88;;;5.49;100.00
78845;BME280;68195;50.854;2.860;2023-12-20T02:09:24;101726.22;;;4.58;100.00
78845;BME280;68195;50.854;2.860;2023-12-20T02:11:50;101860.78;;;5.49;100.00
78845;BME280;68195;50.854;2.860;2023-12-20T02:14:15;101745.06;;;4.71;100.00
78845;BME280;68195;50.854;2.860;2023-12-20T02:16:41;101823.91;;;5.26;100.00
78845;BME280;68195;50.854;2.860;2023-12-20T02:19:13;101863.28;;;5.57;100.00
78845;BME280;68195;50.854;2.860;2023-12-20T02:21:39;101813.59;;;5.21;100.00
78845;BME280;68195;50.854;2.860;2023-12-20T02:24:05;101768.97;;;4.94;100.00
78845;BME280;68195;50.854;2.860;2023-12-20T02:26:32;101781.84;;;5.01;100.00
78845;BME280;68195;50.854;2.860;2023-12-20T02:28:59;101772.38;;;4.98;100.00
78845;BME280;68195;50.854;2.860;2023-12-20T02:31:27;101890.13;;;5.48;100.00
78845;BME280;68195;50.854;2.860;2023-12-20T02:33:52;101855.72;;;5.39;100.00
78845;BME280;68195;50.854;2.860;2023-12-20T02:36:18;101750.44;;;4.48;100.00
78845;BME280;68195;50.854;2.860;2023-12-20T02:38:46;101818.38;;;4.68;100.00
78845;BME280;68195;50.854;2.860;2023-12-20T02:41:14;101902.38;;;5.34;100.00
78845;BME280;68195;50.854;2.860;2023-12-20T02:43:41;101806.16;;;4.86;100.00
78845;BME280;68195;50.854;2.860;2023-12-20T02:46:09;101831.94;;;4.98;100.00
78845;BME280;68195;50.854;2.860;2023-12-20T02:48:37;101806.13;;;4.89;100.00
78845;BME280;68195;50.854;2.860;2023-12-20T02:51:05;101873.00;;;5.38;100.00
78845;BME280;68195;50.854;2.860;2023-12-20T02:53:30;101890.06;;;5.56;100.00
78845;BME280;68195;50.854;2.860;2023-12-20T02:55:55;101766.50;;;4.84;100.00
78845;BME280;68195;50.854;2.860;2023-12-20T02:58:21;101759.66;;;4.75;100.00
78845;BME280;68195;50.854;2.860;2023-12-20T03:00:51;101849.75;;;5.30;100.00
78845;BME280;68195;50.854;2.860;2023-12-20T03:03:19;101800.97;;;4.89;100.00
78845;BME280;68195;50.854;2.860;2023-12-20T03:05:45;101868.66;;;5.39;100.00
78845;BME280;68195;50.854;2.860;2023-12-20T03:08:13;101759.75;;;4.66;100.00
78845;BME280;68195;50.854;2.860;2023-12-20T03:10:41;101893.50;;;5.57;100.00
78845;BME280;68195;50.854;2.860;2023-12-20T03:13:08;101759.66;;;4.77;100.00
78845;BME280;68195;50.854;2.860;2023-12-20T03:15:34;101759.66;;;4.75;100.00
78845;BME280;68195;50.854;2.860;2023-12-20T03:17:59;101891.88;;;5.51;100.00
78845;BME280;68195;50.854;2.860;2023-12-20T03:20:25;101887.41;;;5.62;100.00
78845;BME280;68195;50.854;2.860;2023-12-20T03:22:53;101891.81;;;5.55;100.00
78845;BME280;68195;50.854;2.860;2023-12-20T03:25:18;101787.22;;;4.81;100.00
78845;BME280;68195;50.854;2.860;2023-12-20T03:27:44;101848.22;;;5.11;100.00
78845;BME280;68195;50.854;2.860;2023-12-20T03:30:09;101843.78;;;5.25;100.00
78845;BME280;68195;50.854;2.860;2023-12-20T03:32:40;101862.69;;;5.30;100.00
78845;BME280;68195;50.854;2.860;2023-12-20T03:35:07;101889.22;;;5.55;100.00
78845;BME280;68195;50.854;2.860;2023-12-20T03:37:33;101845.38;;;5.35;100.00
78845;BME280;68195;50.854;2.860;2023-12-20T03:39:58;101818.97;;;5.00;100.00
78845;BME280;68195;50.854;2.860;2023-12-20T03:42:28;101894.38;;;5.57;100.00
78845;BME280;68195;50.854;2.860;2023-12-20T03:44:56;101769.19;;;4.73;100.00
78845;BME280;68195;50.854;2.860;2023-12-20T03:47:24;101780.28;;;4.86;100.00
78845;BME280;68195;50.854;2.860;2023-12-20T03:49:49;101800.00;;;4.99;100.00
78845;BME280;68195;50.854;2.860;2023-12-20T03:52:19;101866.84;;;5.47;100.00
78845;BME280;68195;50.854;2.860;2023-12-20T03:54:45;101874.69;;;5.38;100.00
78845;BME280;68195;50.854;2.860;2023-12-20T03:57:10;101884.03;;;5.55;100.00
78845;BME280;68195;50.854;2.860;2023-12-20T03:59:36;101874.53;;;5.54;100.00
78845;BME280;68195;50.854;2.860;2023-12-20T04:02:07;101868.72;;;5.34;100.00
78845;BME280;68195;50.854;2.860;2023-12-20T04:04:32;101842.03;;;5.27;100.00
78845;BME280;68195;50.854;2.860;2023-12-20T04:07:00;101782.06;;;4.81;100.00
78845;BME280;68195;50.854;2.860;2023-12-20T04:09:25;101849.81;;;5.24;100.00
78845;BME280;68195;50.854;2.860;2023-12-20T04:11:51;101869.50;;;5.42;100.00
78845;BME280;68195;50.854;2.860;2023-12-20T04:14:16;101877.22;;;5.47;100.00
78845;BME280;68195;50.854;2.860;2023-12-20T04:16:41;101765.72;;;4.74;100.00
78845;BME280;68195;50.854;2.860;2023-12-20T04:19:10;101733.13;;;4.55;100.00
78845;BME280;68195;50.854;2.860;2023-12-20T04:21:35;101888.38;;;5.52;100.00
78845;BME280;68195;50.854;2.860;2023-12-20T04:24:03;101820.69;;;5.01;100.00
78845;BME280;68195;50.854;2.860;2023-12-20T04:26:31;101820.69;;;5.02;100.00
78845;BME280;68195;50.854;2.860;2023-12-20T04:29:00;101726.31;;;4.44;100.00
78845;BME280;68195;50.854;2.860;2023-12-20T04:31:28;101835.38;;;5.00;100.00
78845;BME280;68195;50.854;2.860;2023-12-20T04:33:53;101815.50;;;5.01;100.00
78845;BME280;68195;50.854;2.860;2023-12-20T04:36:23;101809.47;;;4.99;100.00
78845;BME280;68195;50.854;2.860;2023-12-20T04:38:52;101846.31;;;5.28;100.00
78845;BME280;68195;50.854;2.860;2023-12-20T04:41:19;101740.94;;;4.50;100.00
78845;BME280;68195;50.854;2.860;2023-12-20T04:43:47;101729.66;;;4.56;100.00
78845;BME280;68195;50.854;2.860;2023-12-20T04:46:14;101730.50;;;4.58;100.00
78845;BME280;68195;50.854;2.860;2023-12-20T04:48:45;101850.53;;;5.40;100.00
78845;BME280;68195;50.854;2.860;2023-12-20T04:51:10;101853.22;;;5.28;100.00
78845;BME280;68195;50.854;2.860;2023-12-20T04:53:36;101873.84;;;5.40;100.00
78845;BME280;68195;50.854;2.860;2023-12-20T04:56:04;101835.22;;;5.17;100.00
78845;BME280;68195;50.854;2.860;2023-12-20T04:58:29;101850.66;;;5.26;100.00
78845;BME280;68195;50.854;2.860;2023-12-20T05:00:54;101888.41;;;5.50;100.00
78845;BME280;68195;50.854;2.860;2023-12-20T05:03:20;101795.78;;;4.86;100.00
78845;BME280;68195;50.854;2.860;2023-12-20T05:05:45;101868.66;;;5.40;100.00
78845;BME280;68195;50.854;2.860;2023-12-20T05:08:13;101857.56;;;5.26;100.00
78845;BME280;68195;50.854;2.860;2023-12-20T05:10:41;101737.47;;;4.54;100.00
78845;BME280;68195;50.854;2.860;2023-12-20T05:13:11;101893.56;;;5.52;100.00
78845;BME280;68195;50.854;2.860;2023-12-20T05:15:39;101753.72;;;4.67;100.00
78845;BME280;68195;50.854;2.860;2023-12-20T05:18:04;101792.34;;;4.85;100.00
78845;BME280;68195;50.854;2.860;2023-12-20T05:20:30;101888.38;;;5.55;100.00
78845;BME280;68195;50.854;2.860;2023-12-20T05:23:00;101806.88;;;5.02;100.00
78845;BME280;68195;50.854;2.860;2023-12-20T05:25:25;101866.09;;;5.37;100.00
78845;BME280;68195;50.854;2.860;2023-12-20T05:27:55;101830.84;;;5.22;100.00
78845;BME280;68195;50.854;2.860;2023-12-20T05:30:23;101797.41;;;4.99;100.00
78845;BME280;68195;50.854;2.860;2023-12-20T05:32:51;101837.59;;;5.39;100.00
78845;BME280;68195;50.854;2.860;2023-12-20T05:35:16;101819.72;;;5.12;100.00
78845;BME280;68195;50.854;2.860;2023-12-20T05:37:42;101869.50;;;5.42;100.00
78845;BME280;68195;50.854;2.860;2023-12-20T05:40:10;101749.34;;;4.73;100.00
78845;BME280;68195;50.854;2.860;2023-12-20T05:42:36;101717.66;;;4.50;100.00
78845;BME280;68195;50.854;2.860;2023-12-20T05:45:05;101851.50;;;5.30;100.00
78845;BME280;68195;50.854;2.860;2023-12-20T05:47:31;101870.41;;;5.37;100.00
78845;BME280;68195;50.854;2.860;2023-12-20T05:49:59;101886.69;;;5.48;100.00
78845;BME280;68195;50.854;2.860;2023-12-20T05:52:24;101887.59;;;5.47;100.00
78845;BME280;68195;50.854;2.860;2023-12-20T05:54:52;101745.13;;;4.62;100.00
78845;BME280;68195;50.854;2.860;2023-12-20T05:57:17;101901.34;;;5.53;100.00
78845;BME280;68195;50.854;2.860;2023-12-20T05:59:43;101874.69;;;5.38;100.00
78845;BME280;68195;50.854;2.860;2023-12-20T06:02:08;101861.84;;;5.28;100.00
78845;BME280;68195;50.854;2.860;2023-12-20T06:04:33;101824.16;;;5.00;100.00
78845;BME280;68195;50.854;2.860;2023-12-20T06:06:59;101843.03;;;5.09;100.00
78845;BME280;68195;50.854;2.860;2023-12-20T06:09:27;101819.88;;;4.97;100.00
78845;BME280;68195;50.854;2.860;2023-12-20T06:11:54;101734.88;;;4.52;100.00
78845;BME280;68195;50.854;2.860;2023-12-20T06:14:22;101804.34;;;4.97;100.00
78845;BME280;68195;50.854;2.860;2023-12-20T06:16:51;101854.97;;;5.24;100.00
78845;BME280;68195;50.854;2.860;2023-12-20T06:19:16;101878.19;;;5.37;100.00
78845;BME280;68195;50.854;2.860;2023-12-20T06:21:44;101889.34;;;5.42;100.00
78845;BME280;68195;50.854;2.860;2023-12-20T06:24:09;101873.16;;;5.20;100.00
78845;BME280;68195;50.854;2.860;2023-12-20T06:26:37;101888.47;;;5.44;100.00
78845;BME280;68195;50.854;2.860;2023-12-20T06:29:05;101859.25;;;5.30;100.00
78845;BME280;68195;50.854;2.860;2023-12-20T06:31:33;101833.63;;;5.04;100.00
78845;BME280;68195;50.854;2.860;2023-12-20T06:34:03;101823.28;;;5.01;100.00
78845;BME280;68195;50.854;2.860;2023-12-20T06:36:31;101762.44;;;4.57;100.00
78845;BME280;68195;50.854;2.860;2023-12-20T06:38:56;101817.34;;;4.89;100.00
78845;BME280;68195;50.854;2.860;2023-12-20T06:41:22;101748.75;;;4.45;100.00
78845;BME280;68195;50.854;2.860;2023-12-20T06:43:52;101872.41;;;5.07;100.00
78845;BME280;68195;50.854;2.860;2023-12-20T06:46:20;101831.03;;;5.01;100.00
78845;BME280;68195;50.854;2.860;2023-12-20T06:48:48;101735.81;;;4.45;100.00
78845;BME280;68195;50.854;2.860;2023-12-20T06:51:19;101864.53;;;5.21;100.00
78845;BME280;68195;50.854;2.860;2023-12-20T06:53:47;101753.81;;;4.53;100.00
78845;BME280;68195;50.854;2.860;2023-12-20T06:56:13;101873.06;;;5.29;100.00
78845;BME280;68195;50.854;2.860;2023-12-20T06:58:41;101892.84;;;5.38;100.00
78845;BME280;68195;50.854;2.860;2023-12-20T07:01:11;101886.81;;;5.35;100.00
78845;BME280;68195;50.854;2.860;2023-12-20T07:03:39;101894.59;;;5.35;100.00
78845;BME280;68195;50.854;2.860;2023-12-20T07:06:07;101812.06;;;4.99;100.00
78845;BME280;68195;50.854;2.860;2023-12-20T07:08:35;101847.31;;;5.13;100.00
78845;BME280;68195;50.854;2.860;2023-12-20T07:11:03;101849.06;;;5.13;100.00
78845;BME280;68195;50.854;2.860;2023-12-20T07:13:31;101802.72;;;4.85;100.00
78845;BME280;68195;50.854;2.860;2023-12-20T07:15:58;101738.34;;;4.47;100.00
78845;BME280;68195;50.854;2.860;2023-12-20T07:18:26;101790.81;;;4.67;100.00
78845;BME280;68195;50.854;2.860;2023-12-20T07:20:51;101839.78;;;4.90;100.00
78845;BME280;68195;50.854;2.860;2023-12-20T07:23:17;101743.69;;;4.30;100.00
78845;BME280;68195;50.854;2.860;2023-12-20T07:25:45;101732.44;;;4.34;100.00
78845;BME280;68195;50.854;2.860;2023-12-20T07:28:12;101842.28;;;4.97;100.00
78845;BME280;68195;50.854;2.860;2023-12-20T07:30:38;101855.97;;;5.12;100.00
78845;BME280;68195;50.854;2.860;2023-12-20T07:33:05;101773.63;;;4.56;100.00
78845;BME280;68195;50.854;2.860;2023-12-20T07:35:34;101749.63;;;4.40;100.00
78845;BME280;68195;50.854;2.860;2023-12-20T07:38:02;101888.78;;;5.12;100.00
78845;BME280;68195;50.854;2.860;2023-12-20T07:40:27;101720.56;;;4.13;100.00
78845;BME280;68195;50.854;2.860;2023-12-20T07:42:52;101875.00;;;5.07;100.00
78845;BME280;68195;50.854;2.860;2023-12-20T07:45:18;101747.97;;;4.31;100.00
78845;BME280;68195;50.854;2.860;2023-12-20T07:47:43;101870.75;;;4.97;100.00
78845;BME280;68195;50.854;2.860;2023-12-20T07:50:09;101766.03;;;4.39;100.00
78845;BME280;68195;50.854;2.860;2023-12-20T07:52:35;101820.06;;;4.74;100.00
78845;BME280;68195;50.854;2.860;2023-12-20T07:55:00;101903.34;;;5.22;100.00
78845;BME280;68195;50.854;2.860;2023-12-20T07:57:29;101895.63;;;5.18;100.00
78845;BME280;68195;50.854;2.860;2023-12-20T07:59:58;101892.13;;;5.20;100.00
78845;BME280;68195;50.854;2.860;2023-12-20T08:02:23;101758.28;;;4.37;100.00
78845;BME280;68195;50.854;2.860;2023-12-20T08:04:48;101878.44;;;5.10;100.00
78845;BME280;68195;50.854;2.860;2023-12-20T08:07:16;101815.69;;;4.79;100.00
78845;BME280;68195;50.854;2.860;2023-12-20T08:09:41;101837.25;;;4.81;100.00
78845;BME280;68195;50.854;2.860;2023-12-20T08:12:09;101884.38;;;5.20;100.00
78845;BME280;68195;50.854;2.860;2023-12-20T08:14:37;101872.38;;;5.13;100.00
78845;BME280;68195;50.854;2.860;2023-12-20T08:17:07;101760.84;;;4.40;100.00
78845;BME280;68195;50.854;2.860;2023-12-20T08:19:32;101747.06;;;4.40;100.00
78845;BME280;68195;50.854;2.860;2023-12-20T08:22:02;101747.00;;;4.44;100.00
78845;BME280;68195;50.854;2.860;2023-12-20T08:24:29;101869.56;;;5.34;100.00
78845;BME280;68195;50.854;2.860;2023-12-20T08:26:55;101875.53;;;5.40;100.00
78845;BME280;68195;50.854;2.860;2023-12-20T08:29:20;101836.06;;;5.16;100.00
78845;BME280;68195;50.854;2.860;2023-12-20T08:31:46;101859.25;;;5.28;100.00
78845;BME280;68195;50.854;2.860;2023-12-20T08:34:11;101838.69;;;5.14;100.00
78845;BME280;68195;50.854;2.860;2023-12-20T08:36:39;101833.47;;;5.18;100.00
78845;BME280;68195;50.854;2.860;2023-12-20T08:39:04;101790.50;;;5.00;100.00
78845;BME280;68195;50.854;2.860;2023-12-20T08:41:35;101855.72;;;5.40;100.00
78845;BME280;68195;50.854;2.860;2023-12-20T08:44:00;101768.16;;;4.88;100.00
78845;BME280;68195;50.854;2.860;2023-12-20T08:46:28;101844.34;;;5.52;100.00
78845;BME280;68195;50.854;2.860;2023-12-20T08:48:54;101818.66;;;5.30;100.00
78845;BME280;68195;50.854;2.860;2023-12-20T08:51:19;101874.41;;;5.65;100.00
78845;BME280;68195;50.854;2.860;2023-12-20T08:53:46;101859.75;;;5.64;100.00
78845;BME280;68195;50.854;2.860;2023-12-20T08:56:15;101880.38;;;5.73;100.00
78845;BME280;68195;50.854;2.860;2023-12-20T08:58:40;101850.22;;;5.66;100.00
78845;BME280;68195;50.854;2.860;2023-12-20T09:01:06;101898.25;;;6.00;100.00
78845;BME280;68195;50.854;2.860;2023-12-20T09:03:32;101907.56;;;6.13;100.00
78845;BME280;68195;50.854;2.860;2023-12-20T09:06:00;101896.28;;;6.19;100.00
78845;BME280;68195;50.854;2.860;2023-12-20T09:08:26;101899.63;;;6.27;100.00
78845;BME280;68195;50.854;2.860;2023-12-20T09:10:51;101845.53;;;6.01;100.00
78845;BME280;68195;50.854;2.860;2023-12-20T09:13:17;101903.03;;;6.30;100.00
78845;BME280;68195;50.854;2.860;2023-12-20T09:15:42;101746.91;;;5.40;100.00
78845;BME280;68195;50.854;2.860;2023-12-20T09:18:08;101878.06;;;6.23;100.00
78845;BME280;68195;50.854;2.860;2023-12-20T09:20:37;101859.22;;;6.10;100.00
78845;BME280;68195;50.854;2.860;2023-12-20T09:23:02;101854.94;;;6.08;100.00
78845;BME280;68195;50.854;2.860;2023-12-20T09:25:30;101853.25;;;6.05;100.00
78845;BME280;68195;50.854;2.860;2023-12-20T09:27:58;101864.31;;;6.15;100.00
78845;BME280;68195;50.854;2.860;2023-12-20T09:30:26;101864.16;;;6.29;100.00
78845;BME280;68195;50.854;2.860;2023-12-20T09:32:51;101720.75;;;5.57;100.00
78845;BME280;68195;50.854;2.860;2023-12-20T09:35:19;101785.81;;;6.04;100.00
78845;BME280;68195;50.854;2.860;2023-12-20T09:37:50;101829.22;;;6.51;100.00
78845;BME280;68195;50.854;2.860;2023-12-20T09:40:18;101768.19;;;6.27;100.00
78845;BME280;68195;50.854;2.860;2023-12-20T09:42:57;101851.78;;;7.02;100.00
78845;BME280;68195;50.854;2.860;2023-12-20T09:45:24;101868.78;;;7.18;100.00
78845;BME280;68195;50.854;2.860;2023-12-20T09:47:53;101862.63;;;7.24;100.00
78845;BME280;68195;50.854;2.860;2023-12-20T09:50:20;101863.34;;;7.32;100.00
78845;BME280;68195;50.854;2.860;2023-12-20T09:52:55;101838.44;;;7.21;100.00
78845;BME280;68195;50.854;2.860;2023-12-20T09:55:25;101864.97;;;7.38;100.00
78845;BME280;68195;50.854;2.860;2023-12-20T09:57:50;101845.94;;;7.37;100.00
78845;BME280;68195;50.854;2.860;2023-12-20T10:00:16;101870.56;;;7.63;100.00
78845;BME280;68195;50.854;2.860;2023-12-20T10:05:17;101870.44;;;7.69;100.00
78845;BME280;68195;50.854;2.860;2023-12-20T10:07:50;101856.63;;;7.67;100.00
78845;BME280;68195;50.854;2.860;2023-12-20T10:10:16;101837.81;;;7.54;100.00
78845;BME280;68195;50.854;2.860;2023-12-20T10:13:01;101815.56;;;7.39;100.00
78845;BME280;68195;50.854;2.860;2023-12-20T10:15:26;101845.59;;;7.54;100.00
78845;BME280;68195;50.854;2.860;2023-12-20T10:17:54;101856.75;;;7.61;100.00
78845;BME280;68195;50.854;2.860;2023-12-20T10:20:25;101888.34;;;7.85;100.00
78845;BME280;68195;50.854;2.860;2023-12-20T10:22:51;101843.50;;;7.73;100.00
78845;BME280;68195;50.854;2.860;2023-12-20T10:25:24;101856.28;;;7.84;100.00
78845;BME280;68195;50.854;2.860;2023-12-20T10:28:07;101870.75;;;7.97;100.00
78845;BME280;68195;50.854;2.860;2023-12-20T10:30:33;101813.13;;;7.75;100.00
78845;BME280;68195;50.854;2.860;2023-12-20T10:32:58;101822.28;;;7.92;100.00
78845;BME280;68195;50.854;2.860;2023-12-20T10:35:26;101830.06;;;7.95;100.00
78845;BME280;68195;50.854;2.860;2023-12-20T10:37:55;101812.66;;;7.97;100.00
78845;BME280;68195;50.854;2.860;2023-12-20T10:40:26;101809.09;;;8.01;100.00
78845;BME280;68195;50.854;2.860;2023-12-20T10:42:53;101844.31;;;8.16;100.00
78845;BME280;68195;50.854;2.860;2023-12-20T10:45:19;101788.50;;;7.90;100.00
78845;BME280;68195;50.854;2.860;2023-12-20T10:47:48;101826.22;;;8.11;100.00
78845;BME280;68195;50.854;2.860;2023-12-20T10:50:19;101736.53;;;7.50;100.00
78845;BME280;68195;50.854;2.860;2023-12-20T10:52:45;101841.66;;;8.19;100.00
78845;BME280;68195;50.854;2.860;2023-12-20T10:55:11;101821.19;;;8.04;100.00
78845;BME280;68195;50.854;2.860;2023-12-20T10:57:37;101794.16;;;7.70;100.00
78845;BME280;68195;50.854;2.860;2023-12-20T11:00:05;101830.06;;;7.95;100.00
78845;BME280;68195;50.854;2.860;2023-12-20T11:02:39;101822.03;;;8.04;100.00
78845;BME280;68195;50.854;2.860;2023-12-20T11:08:00;101815.88;;;8.08;100.00
78845;BME280;68195;50.854;2.860;2023-12-20T11:10:31;101804.88;;;7.97;100.00
78845;BME280;68195;50.854;2.860;2023-12-20T11:13:12;101841.00;;;8.09;100.00
78845;BME280;68195;50.854;2.860;2023-12-20T11:15:43;101820.38;;;8.01;100.00
78845;BME280;68195;50.854;2.860;2023-12-20T11:18:09;101791.16;;;7.89;100.00
78845;BME280;68195;50.854;2.860;2023-12-20T11:20:42;101822.00;;;8.06;100.00
78845;BME280;68195;50.854;2.860;2023-12-20T11:23:15;101792.88;;;7.88;100.00
78845;BME280;68195;50.854;2.860;2023-12-20T11:25:47;101784.22;;;7.88;100.00
78845;BME280;68195;50.854;2.860;2023-12-20T11:28:15;101811.50;;;8.10;100.00
78845;BME280;68195;50.854;2.860;2023-12-20T11:33:14;101788.91;;;8.12;100.00
78845;BME280;68195;50.854;2.860;2023-12-20T11:35:45;101695.44;;;7.66;100.00
78845;BME280;68195;50.854;2.860;2023-12-20T11:38:11;101787.84;;;8.21;100.00
78845;BME280;68195;50.854;2.860;2023-12-20T11:40:36;101785.75;;;8.35;100.00
78845;BME280;68195;50.854;2.860;2023-12-20T11:43:03;101760.78;;;8.27;100.00
78845;BME280;68195;50.854;2.860;2023-12-20T11:45:32;101774.50;;;8.35;100.00
78845;BME280;68195;50.854;2.860;2023-12-20T11:48:00;101770.34;;;8.28;100.00
78845;BME280;68195;50.854;2.860;2023-12-20T11:50:27;101757.09;;;8.37;100.00
78845;BME280;68195;50.854;2.860;2023-12-20T11:52:54;101755.31;;;8.39;100.00
78845;BME280;68195;50.854;2.860;2023-12-20T11:55:21;101756.94;;;8.45;100.00
78845;BME280;68195;50.854;2.860;2023-12-20T11:57:49;101761.22;;;8.47;100.00
78845;BME280;68195;50.854;2.860;2023-12-20T12:00:15;101743.97;;;8.43;100.00
78845;BME280;68195;50.854;2.860;2023-12-20T12:02:42;101710.47;;;8.28;100.00
78845;BME280;68195;50.854;2.860;2023-12-20T12:05:10;101756.75;;;8.51;100.00
78845;BME280;68195;50.854;2.860;2023-12-20T12:07:36;101762.84;;;8.51;100.00
78845;BME280;68195;50.854;2.860;2023-12-20T12:10:03;101762.53;;;8.63;100.00
78845;BME280;68195;50.854;2.860;2023-12-20T12:12:29;101745.50;;;8.50;100.00
78845;BME280;68195;50.854;2.860;2023-12-20T12:14:57;101734.13;;;8.54;100.00
78845;BME280;68195;50.854;2.860;2023-12-20T12:17:25;101745.25;;;8.59;100.00
78845;BME280;68195;50.854;2.860;2023-12-20T12:20:02;101743.81;;;8.49;100.00
78845;BME280;68195;50.854;2.860;2023-12-20T12:22:30;101732.81;;;8.36;100.00
78845;BME280;68195;50.854;2.860;2023-12-20T12:24:59;101739.34;;;8.54;100.00
78845;BME280;68195;50.854;2.860;2023-12-20T12:27:34;101704.88;;;8.45;100.00
78845;BME280;68195;50.854;2.860;2023-12-20T12:30:01;101713.72;;;8.72;100.00
78845;BME280;68195;50.854;2.860;2023-12-20T12:32:29;101680.56;;;8.44;100.00
78845;BME280;68195;50.854;2.860;2023-12-20T12:34:55;101704.38;;;8.63;100.00
78845;BME280;68195;50.854;2.860;2023-12-20T12:37:22;101699.16;;;8.65;100.00
78845;BME280;68195;50.854;2.860;2023-12-20T12:39:49;101674.97;;;8.59;100.00
78845;BME280;68195;50.854;2.860;2023-12-20T12:42:14;101690.06;;;8.79;100.00
78845;BME280;68195;50.854;2.860;2023-12-20T12:44:42;101686.41;;;8.87;100.00
78845;BME280;68195;50.854;2.860;2023-12-20T12:47:07;101671.72;;;8.84;100.00
78845;BME280;68195;50.854;2.860;2023-12-20T12:49:33;101642.50;;;8.73;100.00
78845;BME280;68195;50.854;2.860;2023-12-20T12:51:59;101666.78;;;8.73;100.00
78845;BME280;68195;50.854;2.860;2023-12-20T12:54:28;101688.03;;;8.91;100.00
78845;BME280;68195;50.854;2.860;2023-12-20T12:56:55;101692.59;;;8.82;100.00
78845;BME280;68195;50.854;2.860;2023-12-20T12:59:23;101692.38;;;8.90;100.00